createdAt,value
2023-05-16T00:00:15.817Z,5.07
2023-05-16T00:02:42.579Z,4.93
2023-05-16T00:05:10.672Z,5.00
2023-05-16T00:07:37.161Z,4.60
2023-05-16T00:10:03.838Z,4.47
2023-05-16T00:12:30.439Z,4.67
2023-05-16T00:14:57.030Z,4.97
2023-05-16T00:17:23.922Z,4.23
2023-05-16T00:19:58.163Z,4.40
2023-05-16T00:22:25.492Z,4.10
2023-05-16T00:24:51.961Z,4.67
2023-05-16T00:27:18.478Z,4.70
2023-05-16T00:29:44.923Z,4.47
2023-05-16T00:32:11.694Z,4.47
2023-05-16T00:34:38.331Z,3.77
2023-05-16T00:37:05.278Z,4.40
2023-05-16T00:39:32.161Z,4.20
2023-05-16T00:41:58.870Z,3.63
2023-05-16T00:44:25.416Z,4.13
2023-05-16T00:46:52.470Z,3.97
2023-05-16T00:49:19.209Z,4.00
2023-05-16T00:51:45.859Z,3.93
2023-05-16T00:54:12.639Z,3.90
2023-05-16T00:56:40.297Z,4.17
2023-05-16T00:59:06.956Z,3.37
2023-05-16T01:01:34.808Z,3.40
2023-05-16T01:04:01.583Z,4.03
2023-05-16T01:06:28.281Z,3.27
2023-05-16T01:08:54.728Z,3.40
2023-05-16T01:11:34.579Z,3.67
2023-05-16T01:14:01.052Z,3.03
2023-05-16T01:16:40.269Z,3.40
2023-05-16T01:19:19.647Z,3.07
2023-05-16T01:21:59.976Z,3.13
2023-05-16T01:25:14.762Z,3.47
2023-05-16T01:27:41.903Z,2.77
2023-05-16T01:30:19.373Z,3.17
2023-05-16T01:32:46.225Z,3.17
2023-05-16T01:35:15.833Z,2.83
2023-05-16T01:37:49.738Z,2.90
2023-05-16T01:40:54.951Z,3.03
2023-05-16T01:43:33.544Z,3.37
2023-05-16T01:46:10.546Z,3.37
2023-05-16T01:49:02.047Z,3.10
2023-05-16T01:51:33.240Z,2.97
2023-05-16T01:54:06.355Z,2.80
2023-05-16T01:56:34.343Z,2.93
2023-05-16T01:59:02.144Z,2.90
2023-05-16T02:01:31.706Z,2.70
2023-05-16T02:03:58.885Z,2.80
2023-05-16T02:06:28.248Z,3.00
2023-05-16T02:08:56.452Z,2.70
2023-05-16T02:11:23.183Z,2.70
2023-05-16T02:13:49.753Z,2.60
2023-05-16T02:16:16.696Z,2.77
2023-05-16T02:18:45.018Z,2.80
2023-05-16T02:21:11.562Z,2.50
2023-05-16T02:23:38.043Z,2.57
2023-05-16T02:26:04.821Z,2.47
2023-05-16T02:28:31.290Z,2.50
2023-05-16T02:31:01.455Z,2.40
2023-05-16T02:33:29.278Z,2.53
2023-05-16T02:35:56.017Z,2.37
2023-05-16T02:38:22.595Z,2.47
2023-05-16T02:40:49.393Z,2.30
2023-05-16T02:43:16.274Z,2.47
2023-05-16T02:45:42.866Z,2.60
2023-05-16T02:48:09.379Z,2.20
2023-05-16T02:50:37.459Z,2.50
2023-05-16T02:53:04.618Z,2.40
2023-05-16T02:55:31.209Z,2.00
2023-05-16T02:57:57.648Z,2.30
2023-05-16T03:00:24.128Z,2.37
2023-05-16T03:02:50.739Z,1.80
2023-05-16T03:05:17.410Z,2.37
2023-05-16T03:07:45.027Z,2.20
2023-05-16T03:10:11.486Z,2.60
2023-05-16T03:12:38.357Z,2.37
2023-05-16T03:15:05.905Z,2.33
2023-05-16T03:17:32.586Z,2.23
2023-05-16T03:19:59.098Z,2.13
2023-05-16T03:22:25.553Z,2.23
2023-05-16T03:24:52.051Z,2.40
2023-05-16T03:27:18.712Z,1.67
2023-05-16T03:29:45.314Z,2.37
2023-05-16T03:32:11.913Z,2.20
2023-05-16T03:34:38.422Z,2.33
2023-05-16T03:37:04.951Z,1.87
2023-05-16T03:39:31.434Z,2.20
2023-05-16T03:41:58.062Z,1.87
2023-05-16T03:44:24.627Z,2.30
2023-05-16T03:46:52.770Z,2.13
2023-05-16T03:49:20.920Z,2.30
2023-05-16T03:51:49.099Z,2.10
2023-05-16T03:54:15.507Z,2.40
2023-05-16T03:56:41.994Z,2.13
2023-05-16T03:59:08.458Z,1.87
2023-05-16T04:01:35.564Z,1.93
2023-05-16T04:04:02.256Z,1.70
2023-05-16T04:06:29.290Z,2.20
2023-05-16T04:08:55.739Z,2.17
2023-05-16T04:11:22.210Z,1.80
2023-05-16T04:13:48.663Z,2.00
2023-05-16T04:16:15.251Z,2.10
2023-05-16T04:18:41.851Z,2.13
2023-05-16T04:21:10.780Z,2.17
2023-05-16T04:23:37.308Z,2.07
2023-05-16T04:26:04.609Z,2.20
2023-05-16T04:28:31.212Z,2.50
2023-05-16T04:30:57.857Z,2.20
2023-05-16T04:33:24.298Z,1.83
2023-05-16T04:35:50.849Z,2.20
2023-05-16T04:38:17.407Z,2.13
2023-05-16T04:40:43.923Z,2.03
2023-05-16T04:43:10.467Z,2.20
2023-05-16T04:45:37.985Z,2.00
2023-05-16T04:48:04.998Z,2.00
2023-05-16T04:50:31.585Z,2.13
2023-05-16T04:52:58.091Z,1.80
2023-05-16T04:55:24.951Z,1.93
2023-05-16T04:57:51.595Z,2.30
2023-05-16T05:00:18.272Z,2.23
2023-05-16T05:02:44.835Z,2.00
2023-05-16T05:05:11.561Z,1.80
2023-05-16T05:07:38.251Z,2.33
2023-05-16T05:10:06.596Z,2.03
2023-05-16T05:12:33.664Z,2.13
2023-05-16T05:15:00.328Z,2.30
2023-05-16T05:17:26.952Z,1.80
2023-05-16T05:19:53.471Z,1.87
2023-05-16T05:22:19.910Z,1.73
2023-05-16T05:24:46.455Z,2.20
2023-05-16T05:27:12.978Z,1.87
2023-05-16T05:29:39.796Z,2.00
2023-05-16T05:32:06.531Z,2.00
2023-05-16T05:34:33.231Z,1.87
2023-05-16T05:36:59.889Z,2.07
2023-05-16T05:39:26.613Z,1.97
2023-05-16T05:41:53.045Z,1.93
2023-05-16T05:44:19.540Z,2.03
2023-05-16T05:46:46.182Z,2.03
2023-05-16T05:49:13.026Z,1.90
2023-05-16T05:51:39.526Z,1.93
2023-05-16T05:54:06.350Z,1.90
2023-05-16T05:56:32.838Z,2.30
2023-05-16T05:58:59.516Z,2.23
2023-05-16T06:01:26.036Z,2.67
2023-05-16T06:03:52.621Z,3.40
2023-05-16T06:06:19.159Z,3.10
2023-05-16T06:08:45.697Z,2.80
2023-05-16T06:11:12.186Z,2.93
2023-05-16T06:13:38.692Z,3.20
2023-05-16T06:16:07.063Z,4.40
2023-05-16T06:18:35.397Z,3.30
2023-05-16T06:21:01.932Z,3.50
2023-05-16T06:23:28.404Z,3.70
2023-05-16T06:25:55.115Z,4.00
2023-05-16T06:28:21.630Z,4.00
2023-05-16T06:30:48.170Z,3.80
2023-05-16T06:33:15.721Z,3.93
2023-05-16T06:35:42.203Z,4.30
2023-05-16T06:38:08.659Z,3.30
2023-05-16T06:40:35.211Z,3.90
2023-05-16T06:43:01.794Z,3.90
2023-05-16T06:45:28.354Z,3.60
2023-05-16T06:47:57.429Z,3.97
2023-05-16T06:50:24.290Z,3.70
2023-05-16T06:52:50.853Z,3.43
2023-05-16T06:55:17.448Z,3.40
2023-05-16T06:57:43.929Z,3.60
2023-05-16T07:00:10.863Z,3.27
2023-05-16T07:02:37.421Z,3.80
2023-05-16T07:05:04.229Z,3.50
2023-05-16T07:07:30.777Z,3.70
2023-05-16T07:09:57.277Z,3.33
2023-05-16T07:12:23.865Z,3.23
2023-05-16T07:14:50.411Z,4.90
2023-05-16T07:17:16.899Z,5.47
2023-05-16T07:19:43.479Z,4.60
2023-05-16T07:22:11.074Z,4.00
2023-05-16T07:24:37.835Z,4.40
2023-05-16T07:27:04.583Z,4.63
2023-05-16T07:29:31.188Z,4.47
2023-05-16T07:31:57.696Z,4.20
2023-05-16T07:34:24.341Z,4.47
2023-05-16T07:36:50.976Z,4.60
2023-05-16T07:39:17.479Z,4.60
2023-05-16T07:41:44.013Z,4.87
2023-05-16T07:44:10.464Z,4.20
2023-05-16T07:46:37.355Z,19.13
2023-05-16T07:49:04.205Z,15.13
2023-05-16T07:51:30.739Z,9.57
2023-05-16T07:53:57.468Z,10.07
2023-05-16T07:56:24.009Z,11.77
2023-05-16T07:58:50.735Z,10.97
2023-05-16T08:01:17.275Z,58.80
2023-05-16T08:03:43.904Z,43.80
2023-05-16T08:06:10.616Z,29.47
2023-05-16T08:08:37.233Z,28.33
2023-05-16T08:11:04.106Z,24.97
2023-05-16T08:13:31.686Z,21.97
2023-05-16T08:15:58.369Z,46.90
2023-05-16T08:18:24.983Z,39.80
2023-05-16T08:20:51.648Z,29.63
2023-05-16T08:23:18.966Z,20.63
2023-05-16T08:25:45.499Z,17.70
2023-05-16T08:28:11.942Z,16.53
2023-05-16T08:30:41.091Z,14.73
2023-05-16T08:33:10.263Z,14.17
2023-05-16T08:35:36.864Z,11.83
2023-05-16T08:38:03.485Z,14.00
2023-05-16T08:40:30.465Z,11.27
2023-05-16T08:42:57.169Z,9.87
2023-05-16T08:45:24.235Z,10.73
2023-05-16T08:47:53.373Z,8.83
2023-05-16T08:50:20.083Z,8.57
2023-05-16T08:52:49.656Z,7.87
2023-05-16T08:55:19.221Z,6.97
2023-05-16T08:57:46.730Z,6.67
2023-05-16T09:00:14.120Z,6.17
2023-05-16T09:02:47.117Z,7.00
2023-05-16T09:05:15.522Z,6.43
2023-05-16T09:07:43.290Z,6.50
2023-05-16T09:10:11.082Z,5.80
2023-05-16T09:12:39.107Z,5.77
2023-05-16T09:15:07.436Z,5.70
2023-05-16T09:17:40.233Z,5.40
2023-05-16T09:20:17.609Z,5.07
2023-05-16T09:23:10.386Z,5.43
2023-05-16T09:25:37.296Z,4.60
2023-05-16T09:28:04.205Z,4.70
2023-05-16T09:30:34.988Z,4.97
2023-05-16T09:33:02.127Z,4.83
2023-05-16T09:37:58.264Z,5.43
2023-05-16T09:40:24.782Z,4.83
2023-05-16T09:43:04.625Z,5.43
2023-05-16T09:45:32.254Z,5.27
2023-05-16T09:48:04.235Z,4.50
2023-05-16T09:50:33.568Z,5.03
2023-05-16T09:53:00.867Z,4.37
2023-05-16T09:55:27.804Z,3.80
2023-05-16T09:57:54.531Z,4.13
2023-05-16T10:00:22.260Z,4.47
2023-05-16T10:02:49.687Z,4.40
2023-05-16T10:05:17.715Z,4.70
2023-05-16T10:07:44.780Z,5.53
2023-05-16T10:10:13.861Z,5.30
2023-05-16T10:12:41.682Z,4.93
2023-05-16T10:15:10.142Z,5.57
2023-05-16T10:17:40.157Z,3.90
2023-05-16T10:20:10.051Z,4.37
2023-05-16T10:22:43.093Z,4.00
2023-05-16T10:25:28.540Z,4.33
2023-05-16T10:27:55.688Z,3.73
2023-05-16T10:30:22.290Z,4.20
2023-05-16T10:32:51.482Z,3.87
2023-05-16T10:35:18.170Z,3.83
2023-05-16T10:37:44.836Z,4.00
2023-05-16T10:40:12.184Z,3.27
2023-05-16T10:42:38.692Z,3.70
2023-05-16T10:45:18.114Z,4.03
2023-05-16T10:47:55.467Z,3.37
2023-05-16T10:50:43.468Z,3.87
2023-05-16T10:53:20.347Z,4.10
2023-05-16T10:55:59.096Z,4.37
2023-05-16T10:58:42.361Z,4.07
2023-05-16T11:01:15.882Z,4.17
2023-05-16T11:03:57.831Z,4.20
2023-05-16T11:06:26.258Z,3.80
2023-05-16T11:09:14.108Z,3.50
2023-05-16T11:11:58.603Z,3.27
2023-05-16T11:14:37.358Z,11.93
2023-05-16T11:17:14.071Z,15.17
2023-05-16T11:19:42.318Z,12.60
2023-05-16T11:22:08.736Z,10.43
2023-05-16T11:24:37.033Z,8.27
2023-05-16T11:27:04.777Z,6.80
2023-05-16T11:29:33.566Z,6.57
2023-05-16T11:32:01.660Z,5.73
2023-05-16T11:34:28.429Z,5.10
2023-05-16T11:36:57.062Z,5.47
2023-05-16T11:39:26.603Z,4.73
2023-05-16T11:41:58.767Z,4.83
2023-05-16T11:44:25.427Z,5.10
2023-05-16T11:46:52.079Z,5.67
2023-05-16T11:49:18.737Z,4.37
2023-05-16T11:51:45.378Z,4.20
2023-05-16T11:54:13.041Z,4.40
2023-05-16T11:56:43.088Z,3.77
2023-05-16T11:59:11.406Z,3.50
2023-05-16T12:01:39.621Z,3.97
2023-05-16T12:04:10.938Z,4.27
2023-05-16T12:06:41.078Z,3.47
2023-05-16T12:09:11.422Z,3.77
2023-05-16T12:11:38.798Z,4.03
2023-05-16T12:14:06.922Z,3.70
2023-05-16T12:16:34.267Z,4.47
2023-05-16T12:19:02.280Z,3.13
2023-05-16T12:21:28.893Z,3.23
2023-05-16T12:23:57.586Z,3.80
2023-05-16T12:26:30.863Z,3.10
2023-05-16T12:29:03.464Z,3.57
2023-05-16T12:31:32.633Z,3.30
2023-05-16T12:33:59.471Z,3.20
2023-05-16T12:36:28.632Z,3.60
2023-05-16T12:38:55.195Z,3.47
2023-05-16T12:41:23.131Z,3.43
2023-05-16T12:43:50.253Z,3.97
2023-05-16T12:46:17.738Z,3.40
2023-05-16T12:48:44.330Z,4.00
2023-05-16T12:51:16.318Z,3.73
2023-05-16T12:53:57.736Z,3.50
2023-05-16T12:56:44.706Z,3.83
2023-05-16T12:59:12.319Z,3.07
2023-05-16T13:01:40.624Z,3.40
2023-05-16T13:04:08.321Z,3.30
2023-05-16T13:06:55.564Z,3.47
2023-05-16T13:09:21.876Z,3.50
2023-05-16T13:11:48.362Z,3.67
2023-05-16T13:14:14.861Z,3.67
2023-05-16T13:16:41.471Z,3.63
2023-05-16T13:19:08.200Z,3.57
2023-05-16T13:21:34.701Z,3.20
2023-05-16T13:24:01.188Z,3.47
2023-05-16T13:26:27.808Z,3.27
2023-05-16T13:28:55.087Z,3.43
2023-05-16T13:31:24.877Z,3.27
2023-05-16T13:38:04.749Z,3.30
2023-05-16T13:40:31.404Z,3.27
2023-05-16T13:42:57.924Z,3.03
2023-05-16T13:45:24.574Z,3.03
2023-05-16T13:47:51.182Z,3.10
2023-05-16T13:50:17.820Z,3.27
2023-05-16T13:52:44.529Z,3.17
2023-05-16T13:55:11.096Z,3.23
2023-05-16T13:57:40.828Z,3.20
2023-05-16T14:02:43.603Z,2.90
2023-05-16T14:05:10.722Z,3.40
2023-05-16T14:07:37.571Z,3.27
2023-05-16T14:10:06.570Z,3.23
2023-05-16T14:12:33.248Z,3.03
2023-05-16T14:14:59.786Z,3.37
2023-05-16T14:17:26.851Z,3.27
2023-05-16T14:19:53.727Z,3.30
2023-05-16T14:22:20.403Z,2.77
2023-05-16T14:24:47.018Z,3.07
2023-05-16T14:27:15.118Z,2.60
2023-05-16T14:29:41.601Z,2.73
2023-05-16T14:32:09.064Z,2.80
2023-05-16T14:34:35.596Z,3.50
2023-05-16T14:37:02.122Z,3.80
2023-05-16T14:39:28.630Z,3.60
2023-05-16T14:41:55.189Z,3.37
2023-05-16T14:44:24.589Z,3.40
2023-05-16T14:46:51.747Z,3.83
2023-05-16T14:49:18.359Z,3.60
2023-05-16T14:51:51.022Z,3.20
2023-05-16T14:54:19.180Z,3.30
2023-05-16T14:56:45.831Z,3.10
2023-05-16T14:59:12.774Z,3.40
2023-05-16T15:01:39.792Z,3.90
2023-05-16T15:04:06.412Z,17.90
2023-05-16T15:06:33.028Z,81.13
2023-05-16T15:08:59.547Z,106.90
2023-05-16T15:11:26.049Z,76.50
2023-05-16T15:13:52.652Z,69.37
2023-05-16T15:20:34.118Z,56.43
2023-05-16T15:23:08.310Z,92.63
2023-05-16T15:25:37.205Z,83.77
2023-05-16T15:28:07.580Z,62.00
2023-05-16T15:30:37.561Z,49.33
2023-05-16T15:33:05.018Z,44.03
2023-05-16T15:35:39.221Z,38.20
2023-05-16T15:38:09.017Z,37.30
2023-05-16T15:40:38.140Z,29.70
2023-05-16T15:43:05.584Z,25.50
2023-05-16T15:45:35.344Z,24.43
2023-05-16T15:48:07.181Z,19.60
2023-05-16T15:50:34.436Z,19.27
2023-05-16T15:53:02.391Z,18.43
2023-05-16T15:55:30.235Z,20.37
2023-05-16T15:57:59.739Z,17.90
2023-05-16T16:00:26.761Z,16.57
2023-05-16T16:02:54.365Z,14.87
2023-05-16T16:05:21.738Z,13.13
2023-05-16T16:07:48.889Z,12.93
2023-05-16T16:10:15.924Z,11.63
2023-05-16T16:12:43.040Z,11.23
2023-05-16T16:15:10.854Z,9.83
2023-05-16T16:17:37.627Z,10.67
2023-05-16T16:20:04.763Z,10.50
2023-05-16T16:22:31.638Z,10.40
2023-05-16T16:24:58.300Z,11.17
2023-05-16T16:27:25.048Z,10.07
2023-05-16T16:29:51.648Z,10.93
2023-05-16T16:32:18.241Z,10.43
2023-05-16T16:34:44.759Z,9.13
2023-05-16T16:37:11.570Z,13.17
2023-05-16T16:42:05.589Z,36.77
2023-05-16T16:44:32.193Z,34.03
2023-05-16T16:46:59.136Z,25.80
2023-05-16T16:49:25.842Z,21.60
2023-05-16T16:51:52.579Z,20.37
2023-05-16T16:54:19.439Z,21.53
2023-05-16T16:56:47.665Z,19.43
2023-05-16T16:59:14.216Z,18.10
2023-05-16T17:01:41.093Z,16.77
2023-05-16T17:04:07.824Z,14.13
2023-05-16T17:06:34.302Z,12.80
2023-05-16T17:09:05.580Z,12.87
2023-05-16T17:11:35.973Z,11.80
2023-05-16T17:14:05.617Z,10.33
2023-05-16T17:16:32.488Z,10.97
2023-05-16T17:18:59.417Z,10.07
2023-05-16T17:21:26.732Z,10.43
2023-05-16T17:23:53.545Z,9.73
2023-05-16T17:26:20.177Z,10.40
2023-05-16T17:28:46.690Z,10.23
2023-05-16T17:31:13.239Z,9.53
2023-05-16T17:33:40.072Z,8.40
2023-05-16T17:36:07.711Z,8.60
2023-05-16T17:38:34.645Z,8.87
2023-05-16T17:41:01.737Z,7.53
2023-05-16T17:43:30.846Z,8.20
2023-05-16T17:45:57.688Z,7.73
2023-05-16T17:48:24.500Z,8.80
2023-05-16T17:50:51.324Z,8.67
2023-05-16T17:53:17.835Z,9.83
2023-05-16T17:55:44.481Z,10.93
2023-05-16T17:58:10.957Z,10.50
2023-05-16T18:00:38.390Z,9.93
2023-05-16T18:03:06.334Z,11.27
2023-05-16T18:05:33.101Z,11.80
2023-05-16T18:07:59.709Z,12.23
2023-05-16T18:10:29.615Z,11.47
2023-05-16T18:13:03.659Z,11.57
2023-05-16T18:15:30.354Z,12.33
2023-05-16T18:17:57.113Z,12.83
2023-05-16T18:20:23.784Z,12.43
2023-05-16T18:22:51.833Z,12.13
2023-05-16T18:25:18.815Z,12.47
2023-05-16T18:27:45.393Z,12.37
2023-05-16T18:30:13.265Z,12.47
2023-05-16T18:32:40.105Z,12.30
2023-05-16T18:35:06.984Z,11.90
2023-05-16T18:37:33.639Z,11.70
2023-05-16T18:40:00.177Z,11.03
2023-05-16T18:42:27.243Z,12.07
2023-05-16T18:44:53.829Z,10.63
2023-05-16T18:47:20.966Z,10.50
2023-05-16T18:49:47.554Z,11.73
2023-05-16T18:52:14.199Z,12.13
2023-05-16T18:54:40.912Z,10.17
2023-05-16T18:57:07.961Z,9.90
2023-05-16T18:59:35.097Z,9.80
2023-05-16T19:02:01.845Z,10.57
2023-05-16T19:04:28.570Z,9.20
2023-05-16T19:06:56.351Z,10.53
2023-05-16T19:09:23.350Z,10.40
2023-05-16T19:11:50.050Z,10.17
2023-05-16T19:14:16.788Z,10.33
2023-05-16T19:16:43.340Z,9.33
2023-05-16T19:19:09.992Z,9.17
2023-05-16T19:21:36.609Z,9.63
2023-05-16T19:24:03.600Z,10.20
2023-05-16T19:26:30.877Z,9.87
2023-05-16T19:28:57.432Z,8.87
2023-05-16T19:31:24.000Z,10.80
2023-05-16T19:33:50.728Z,10.13
2023-05-16T19:36:17.819Z,9.10
2023-05-16T19:38:44.306Z,9.80
2023-05-16T19:41:10.928Z,11.07
2023-05-16T19:43:37.472Z,10.77
2023-05-16T19:46:04.012Z,11.70
2023-05-16T19:48:30.855Z,11.53
2023-05-16T19:50:57.589Z,11.83
2023-05-16T19:53:24.067Z,11.70
2023-05-16T19:55:50.675Z,12.60
2023-05-16T19:58:17.147Z,11.60
2023-05-16T20:00:43.716Z,12.13
2023-05-16T20:03:10.380Z,11.70
2023-05-16T20:05:36.944Z,11.90
2023-05-16T20:08:03.410Z,11.77
2023-05-16T20:10:29.962Z,12.53
2023-05-16T20:12:56.505Z,12.70
2023-05-16T20:15:23.055Z,12.20
2023-05-16T20:17:49.673Z,11.50
2023-05-16T20:20:16.383Z,11.57
2023-05-16T20:22:42.963Z,12.13
2023-05-16T20:25:10.838Z,12.00
2023-05-16T20:27:38.168Z,11.97
2023-05-16T20:30:06.805Z,11.87
2023-05-16T20:32:33.951Z,11.77
2023-05-16T20:35:01.164Z,12.13
2023-05-16T20:37:27.738Z,11.63
2023-05-16T20:39:54.475Z,11.73
2023-05-16T20:42:21.791Z,12.00
2023-05-16T20:44:48.349Z,12.33
2023-05-16T20:47:16.862Z,11.43
2023-05-16T20:49:43.818Z,11.47
2023-05-16T20:52:10.516Z,11.80
2023-05-16T20:54:37.043Z,12.27
2023-05-16T20:57:03.801Z,11.13
2023-05-16T20:59:30.494Z,12.23
2023-05-16T21:01:57.487Z,12.07
2023-05-16T21:04:24.388Z,11.43
2023-05-16T21:06:51.206Z,12.07
2023-05-16T21:09:17.761Z,11.93
2023-05-16T21:11:44.278Z,10.57
2023-05-16T21:14:10.899Z,11.10
2023-05-16T21:16:37.399Z,11.17
2023-05-16T21:19:04.327Z,11.67
2023-05-16T21:21:31.615Z,11.10
2023-05-16T21:23:58.261Z,11.73
2023-05-16T21:26:24.947Z,10.60
2023-05-16T21:28:55.620Z,11.97
2023-05-16T21:31:23.158Z,12.00
2023-05-16T21:33:52.067Z,12.00
2023-05-16T21:36:20.593Z,10.53
2023-05-16T21:38:47.614Z,11.23
2023-05-16T21:41:14.555Z,10.87
2023-05-16T21:43:41.142Z,10.20
2023-05-16T21:46:07.675Z,11.10
2023-05-16T21:48:34.396Z,10.87
2023-05-16T21:51:01.691Z,9.93
2023-05-16T21:53:28.376Z,10.67
2023-05-16T21:55:54.907Z,11.53
2023-05-16T21:58:21.957Z,10.27
2023-05-16T22:00:49.524Z,11.17
2023-05-16T22:03:18.973Z,10.33
2023-05-16T22:05:48.730Z,10.20
2023-05-16T22:08:18.006Z,10.77
2023-05-16T22:10:44.563Z,9.30
2023-05-16T22:13:11.296Z,11.53
2023-05-16T22:15:38.022Z,9.77
2023-05-16T22:18:05.202Z,10.20
2023-05-16T22:20:31.931Z,10.00
2023-05-16T22:22:58.508Z,10.30
2023-05-16T22:25:25.171Z,9.90
2023-05-16T22:27:51.820Z,10.33
2023-05-16T22:30:20.952Z,9.47
2023-05-16T22:32:47.745Z,9.70
2023-05-16T22:35:14.574Z,9.67
2023-05-16T22:37:41.261Z,9.23
2023-05-16T22:40:09.008Z,10.03
2023-05-16T22:42:35.567Z,9.50
2023-05-16T22:45:02.682Z,9.60
2023-05-16T22:47:29.324Z,9.53
2023-05-16T22:49:55.915Z,9.90
2023-05-16T22:52:22.422Z,9.60
2023-05-16T22:54:49.089Z,8.70
2023-05-16T22:57:15.545Z,9.37
2023-05-16T22:59:42.005Z,9.00
2023-05-16T23:02:08.538Z,9.60
2023-05-16T23:04:35.145Z,9.07
2023-05-16T23:07:01.717Z,9.30
2023-05-16T23:09:28.213Z,8.50
2023-05-16T23:11:55.260Z,8.97
2023-05-16T23:14:21.785Z,8.70
2023-05-16T23:16:48.373Z,8.27
2023-05-16T23:19:14.944Z,7.77
2023-05-16T23:21:41.537Z,8.00
2023-05-16T23:24:08.371Z,8.00
2023-05-16T23:26:34.871Z,8.27
2023-05-16T23:29:01.404Z,8.47
2023-05-16T23:31:28.155Z,7.83
2023-05-16T23:33:54.747Z,8.17
2023-05-16T23:36:21.420Z,8.50
2023-05-16T23:38:48.023Z,7.93
2023-05-16T23:41:14.571Z,7.90
2023-05-16T23:43:41.082Z,7.70
2023-05-16T23:46:07.590Z,7.70
2023-05-16T23:48:36.224Z,8.03
2023-05-16T23:51:04.631Z,7.47
2023-05-16T23:53:32.961Z,7.53
2023-05-16T23:55:59.593Z,7.70
2023-05-16T23:58:26.110Z,8.00
